5ちゃんねる ★スマホ版★ ■掲示板に戻る■ 全部 1- 最新50  

■ このスレッドは過去ログ倉庫に格納されています

【中部国際空港】セントレアで千取れや【みゃ〜♪】

1 :名無しSUN:2005/07/13(水) 01:20:58 ID:QrCxqab3 ?##
中部国際空港(セントレア)の天気で千めざすスレです。

セントレアの天気は暗号配信されてます。
http://meteocentre.com/cgi-bin/get_sao_stn?STN=RJGG&DELT=6
上が落ちてる時はこことかでセントレアの識別記号(RJGG)を入れる。
http://adds.aviationweather.gov/metars/
METARの解読はこことか
http://eif-air.web.infoseek.co.jp/metar.html

30分ごとに更新されますので、最短21日で千取れます。

2 :名無しSUN:2005/07/13(水) 01:37:49 ID:QrCxqab3 ?##
RJGG 121600Z 26008KT 9999 FEW030 24/20 Q1009 NOSIG =
凡例

空港名 RJGG セントレア
時間 121600Z グリニッジ標準時で12日16時(日本時間は+9時間で13日1時)
風向風速 26008KT 北から時計回り260度の方角で08KT(キティノット)1キティノットは0.5m/s
視界 9999 良好(メートル単位で10km以上は9999と表す)
雲 FEW030 少しの雲が30セントレアメートル(900m)にある(1セントレアメートル=30m)
気温 露点温度 24/20 気温24℃ 露点温度20℃ 露点温度と湿度の換算表はこちら
http://www.sky-net.or.jp/hige/roten-fukai/rotenondo.htm
気圧 Q1009 1009hPa
NOSIG = 以上みたいなもの

3 :名無しSUN:2005/07/13(水) 01:46:38 ID:QrCxqab3 ?##
RJGG 121630Z 28008KT 9999 FEW030 24/20 Q1009 NOSIG =

RJGG セントレア
121630Z 1時半
28008KT 西の風4m
9999 視界良好
FEW030 晴れ 少し(FEW)の雲が900mの高さにある
24/20 気温24℃ 露点温度20℃ 湿度80%
Q1009 気圧1009hPa
NOSIG =


4 :名無しSUN:2005/07/13(水) 02:07:43 ID:QrCxqab3 ?##
RJGG 121700Z 30008KT 9999 FEW030 23/20 Q1009 NOSIG =
セントレア 2時 晴れ 23℃

5 :名無しSUN:2005/07/13(水) 09:58:08 ID:UgZ99MIR ?##
RJGG 130030Z 29003KT 9999 FEW030 BKN160 25/19 Q1012 BECMG 24005KT =
セントレア 9時半 曇り 25度

RJTT 130030Z 05006KT 360V070 8000 -RA FEW009 SCT011 BKN030 20/17 Q1014 RMK 1ST009 3SC011 7SC030 A2995 =
羽田 9時半 小雨 20度
東京は霧雨じゃ

6 :名無しSUN:2005/07/13(水) 12:47:09 ID:QrCxqab3 ?##
RJGG 130330Z 12009KT 9999 FEW030 BKN160 28/21 Q1012 NOSIG =
セントレア 12時半 曇り 28℃

RJTT 130330Z 10005KT 9999 FEW020 BKN035 22/18 Q1014 RMK 1CU020 7SC035 A2995 =
羽田 12時半 曇り 22℃

7 :名無しSUN:2005/07/13(水) 13:19:23 ID:QrCxqab3 ?##
RJGG 130400Z 12011KT 9999 FEW030 SCT120 28/21 Q1012 NOSIG =
セントレア 1時 晴れ時々曇り 28℃

FEW030 SCT120 少し(FEW)の雲が高度900m 散在(SCTスキャター)してる雲が高度3600m

8 :名無しSUN:2005/07/13(水) 13:22:32 ID:rL5mvX/F



  ヽ        //  /  / /::::::::::::::::::::::::::::::::::::::::::::::::::::::::::::::::::l_// _
 ー-ー         /     ´ /;:::::::::::::::::::::::::::::::::::::::::::::::::::::::::::::::::::::::::///
  -‐         ー―_ - ,r-'´ ヾ、:::::::::::::::::::::::::::::::::::::::::::::::::::::::::::::::::::::::::::/
 ー-    _,,           `ー-、\::::::::::::::::::::::::::::::::::::::;;;:l ̄ ̄ ̄`ヾ;::/
  ー -'     ノ丶\   、_ __ \ \::::::::::::::::::::::::r''" / い  一 \
 ‐'´    _, ― '  ヽ、'  . \へ、 ̄ヾ  \::;::::;-‐'´   |  い  生  |
  ̄           | l     ヽ,\     `゛´     _,/.  の  童  |
 ー ' _ _ 7   _,  lj    |`,ゞ、,''::.、       _,x-'、}  ?  貞  l
 ニ,彡'/ /.,イ/,/ /l  /\ | |  }::()ト、   ,-r'/::():、l     で   |
    ,,;ーク7´/// /_.| ./l <j |    |::::::::i        l:::::::::l }        /
    | // イ //l⌒レ' ヽ、.リ   ヾ=''      ヾ:::;,ソ \_     /
    ヽ'´  { /'´  \    ヾ,       ./         /_/ ̄ ̄ヾ,
        `ー-、  |     ヽ、   _ ヾ       _/     /´`ヽ、
         /   |    ! ヽ\     ̄ ̄ ̄  _,-ク    ;  / .   l
        r'´     |   ; :  丶\     _, '´ /    ,'  /     .|
    ヾ´/ ̄l      {   : 丶.    ` ー- ‐´  /  ! : .: /     .  |
   , ‐'´  /  ;    } .!  l      丶 -‐ ' ;    ;    /    .  . |
ヽ /    ./       |/  ;                '    /    :    

9 :名無しSUN:2005/07/14(木) 01:35:06 ID:OB1Byvuj ?##
RJGG 131600Z 12021KT 8000 FEW005 BKN010 BKN015 23/20 Q1012 TEMPO 4000 SHRA =
セントレア 1時 曇り 23℃

TEMPO 一時的に
4000 視界4000m
SHRA = にわか雨だった

10 :名無しSUN:2005/07/14(木) 01:43:29 ID:OB1Byvuj ?##
RJGG 131630Z 12019KT 8000 FEW005 BKN010 BKN015 23/20 Q1012 TEMPO 4000 TSRA =
セントレア 1時半 曇り 23℃

TEMPO 一時的に
4000 視界4000m
TSRA = 雷雨だった


11 :名無しSUN:2005/07/15(金) 01:54:40 ID:AYtyqn+L ?##
RJGG 141630Z 13007KT 3800 BR FEW030 25/23 Q1016 NOSIG =
セントレア 1時半 もや 25℃

3800 視界3000m
BR もや(だいたい視界6000m以下からもやになる決まり)

12 :名無しSUN:2005/07/15(金) 02:24:53 ID:AYtyqn+L ?##
RJGG 141700Z 12008KT 3500 BR FEW040 25/23 Q1016 NOSIG =
セントレア 2時 もや 25℃

RJTT 141700Z 08003KT 3000 BR BKN035 23/22 Q1016 RMK 7SC035 A3003 =
羽田 2時 もや 23℃
RMK 特記事項
7SC035 全天の(8分の)7にSC(層積雲=曇り雲)が1000mの高度にある。
A3003 = 気圧Q1016 を水銀柱に直した値らしい。

羽田は人力観測だから、雲の種類まで出るね。
セントレアは機械観測らすい

13 :名無しSUN:2005/07/15(金) 02:49:28 ID:AYtyqn+L ?##
RJGG 141730Z 11008KT 3500 BR SCT035 25/23 Q1016 NOSIG =
セントレア 2時半 もや 25℃

14 :名無しSUN:2005/07/15(金) 03:13:58 ID:AYtyqn+L ?##
RJGG 141800Z 12007KT 3000 BR BKN035 25/23 Q1016 NOSIG =
セントレア 3時 もや 25℃

だんだん視界が悪く雲が多くなってきた。
雲の量は FEW<SCT<BKN らすい

15 :名無しSUN:2005/07/15(金) 13:10:46 ID:AYtyqn+L ?##
RJGG 150330Z 23003KT 7000 FEW020 SCT/// 28/23 Q1017 NOSIG =
セントレア 12時半 晴れ時々曇り 28℃

RJTT 150330Z 15011KT 6000 FEW020 29/23 Q1016 RMK 1CU020 A3003 =
羽田 12時半 晴れ 29℃ 上空600mに積雲(CU)少し

東京も今日は暑い

16 :名無しSUN:2005/07/16(土) 00:57:10 ID:fbv061B/ ?##
RJGG 151530Z 10008KT 4300 BR FEW025 SCT050 BKN/// 26/23 Q1016 NOSIG =
セントレア 0時半 もや 26℃

RJTT 151530Z 17009KT 4800 BR FEW008 SCT010 BKN013 25/23 Q1017 RMK 2ST008 4ST010 7SC013 A3004 =
羽田 0時半 もや 25℃

空港もや大杉

17 :名無しSUN:2005/07/16(土) 01:30:16 ID:fbv061B/ ?##
RJGG 151600Z 11010KT 4000 BR FEW025 BKN/// 26/23 Q1016 NOSIG =
セントレア 1時 もや 750mに少し雲 それ以上にたくさん雲 26℃

RJTT 151600Z 18009KT 4800 BR BKN007 BKN010 25/23 Q1017 RMK 5ST007 7ST010 A3003 =
羽田 1時 もや 210mの高さにST(層雲=霧雲)かなり 300mに霧雲たくさん 25℃

東京雲低すぎ

18 :名無しSUN:2005/07/16(土) 03:49:28 ID:fbv061B/ ?##
RJGG 151830Z 11009KT 3300 BR FEW006 SCT020 BKN025 26/23 Q1017 NOSIG =
セントレア 3時半 もや 26℃

19 :名無しSUN:2005/07/16(土) 12:29:19 ID:fbv061B/ ?##
RJGG 160300Z 20007KT 4200 HZ FEW020 29/24 Q1016 BECMG 7000 NSW =
セントレア 12時 煙霧(HZ) 29℃ 

名古屋 12時 煙霧 31.8℃ 56.9%

20 :名無しSUN:2005/07/16(土) 14:35:18 ID:fbv061B/ ?##
RJGG 160500Z 18009KT 6000 FEW020 SCT/// 29/24 Q1015 NOSIG =
セントレア 2時 晴れ時々くもり 29℃

もやとか煙霧とか解消

21 :名無しSUN:2005/07/17(日) 06:25:26 ID:pWlLJeMT ?##
RJGG 162100Z VRB03KT 8000 FEW020 BKN/// 26/23 Q1015 BECMG 07005KT =
セントレア 6時 くもり 26℃

RJTT 162100Z 19008KT 6000 -RA FEW015 SCT017 BKN150 25/24 Q1014 RMK 1SC015 4SC017 7AC150 A2996 =
羽田 6時 小雨 25℃ 特記事項 450mと500mに層積雲(SC=くもり雲) 4500mの高さに高積雲(AC=羊雲)

22 :名無しSUN:2005/07/18(月) 22:33:21 ID:Ss1/a7g1 ?##
RJGG 181300Z 30010KT 9999 FEW030 BKN/// 28/23 Q1010 NOSIG =
セントレア 10時 うす曇り 28℃

つゆあけおめ でも曇ってる?

23 :名無しSUN:2005/07/18(月) 22:45:30 ID:Ymz1e7Ie
>>12
マジレスするとどっちも人間が観測してるよ
RJGGは、addsにはRMK以降が配信されていない。RJTTやAAもたまに抜けてるし

あと、気象庁的には薄曇りが「晴れ」と見なされているのは周知(羞恥)の事実。

24 :名無しSUN:2005/07/19(火) 10:18:12 ID:/bRgl2Gc ?##
RJGG 190100Z 33010KT 9999 FEW040 BKN/// 30/22 Q1009 NOSIG
セントレア 10時 晴れ 30度

RJTT 190100Z 17010KT 7000 NSC 30/23 Q1005
羽田 10時 目立った雲はない(NSC) 30度

>>23
サンクス、今でも人間が観測してるんですね。
BKN/// って晴れでいいんですね。
羽田でこんな記号あったら、そらみてみます

25 :名無しSUN:2005/07/19(火) 12:52:37 ID:X93MIM7f ?##
RJGG 190300Z 31010KT 9999 FEW040 BKN/// 30/21 Q1007 NOSIG =
セントレア 12時 晴れ 30℃

名古屋 12時 曇り 31.1℃ 50.2%

26 :名無しSUN:2005/07/19(火) 23:40:47 ID:X93MIM7f ?##
RJGG 191400Z 32014KT 9999 FEW030 SCT060 BKN/// 26/21 Q1008 NOSIG =
セントレア 11時 くもり 26℃

RJTT 191400Z 09009KT CAVOK 25/19 Q1007 RMK 5AC080 A2974 =
羽田 11時 キャブオッケー 25℃ 特記事項 2400mの高さに全天5/8の羊雲(AC)

羽田CAVOK(快晴)ってヒツジ雲あるじゃん

27 :名無しSUN:2005/07/20(水) 00:43:53 ID:beFrQqFG ?##
RJGG 191530Z 30012KT 9999 FEW030 BKN/// 26/20 Q1007 NOSIG =
セントレア 0時半 晴れ 26℃

RJTT 191530Z 06004KT CAVOK 25/19 Q1006 =
羽田 0時半 快晴 25℃

キャプOKってさっき外へ出たら、ずいぶん雲あるよ。

28 :名無しSUN:2005/07/20(水) 06:19:16 ID:jkQ9+6fK
CAVOKは快晴ではないよ。

29 :名無しSUN:2005/07/20(水) 10:57:36 ID:s/IjM5yo ?##
RJGG 200130Z VRB03KT 9999 FEW030 SCT/// 29/19 Q1007 BECMG 24006KT =
セントレア 10時半 晴れ時々曇り 29度

>>28
サンクスです。セントレアの公式ページに解説ありますた。
http://www.tokyo-jma.go.jp/home/chubu/metar_1.htm

簡単にまとめれば
CAVOK(キャブOK)・・・視界10km以上で、5000フィート(1500m)以下に雲がない。
SCK(スカイクリヤ)・・・雲が全く存在しない状態で、CAVOKではない。つーことは、視界が10km以下。
ということは、雲が全くなくても視界が10km以上あれば、スカイクリヤでなくキャブOKになる?
なんか複雑だなあ。
キャブOKで快晴か晴れか薄曇りかは判断できないのかな。

30 :名無しSUN:2005/07/20(水) 13:00:38 ID:jkQ9+6fK
>>29
航空機の運航にとっては、高いところの雲の量はどうでもいいということかな

31 :名無しSUN:2005/07/20(水) 21:04:09 ID:G+G4p4/k
大変だ。中部国際空港が水没している。 ( [マップ] をクリックすると地図表示に切り替わります)
ttp://maps.google.com/maps?ll=34.862906,136.815775&spn=0.081702,0.118558&t=k&hl=ja

32 :名無しSUN:2005/07/20(水) 22:29:46 ID:beFrQqFG ?##
>>31
ほんとだねえ。
多分建設中に撮った航空写真か

33 :名無しSUN:2005/07/20(水) 23:00:19 ID:G+G4p4/k
衛星写真ですヨン。全世界が見えます。

34 :名無しSUN:2005/07/20(水) 23:06:04 ID:beFrQqFG ?##
RJGG 201330Z 12009KT 8000 FEW030 BKN/// 25/22 Q1007 NOSIG =
セントレア 10時半 うす曇り 25℃

RJTT 201330Z 20010KT CAVOK 25/20 Q1007 RMK A2975 =
羽田 10時半 晴天 25℃

RJOO 201300Z 22003KT 9999 FEW030 SCT080 BKN/// 29/22 Q1007 RMK 1CU030 3AC080 A2974 =
伊丹 29℃あるよ

35 :名無しSUN:2005/07/20(水) 23:40:22 ID:beFrQqFG ?##
RJGG 201400Z 12009KT 8000 FEW030 BKN/// 25/22 Q1007 NOSIG =
セントレア 11時 うす曇り 25℃

RJTT 201400Z 20009KT CAVOK 25/20 Q1007 RMK A2974 =
羽田 11時 晴天 25℃

東京 キャブOKなんだけど、おぼろ月夜。高いところに雲あるらしい。

36 :名無しSUN:2005/07/21(木) 01:11:51 ID:9u+OMFk4 ?##
RJGG 201530Z 09006KT 8000 FEW020 BKN/// 25/22 Q1007 BECMG 04004KT =
セントレア 0時半 うす曇り 25℃

RJTT 201530Z 19008KT CAVOK 24/20 Q1007 RMK A2974 =
羽田 0時半 晴天 24℃

37 :名無しSUN:2005/07/21(木) 09:21:11 ID:9u+OMFk4 ?##
RJGG 210000Z 32004KT 6000 FEW020 BKN/// 26/21 Q1007 NOSIG =
セントレア 9時 うす曇り 26℃

名古屋 9時 煙霧 28.0℃ 64.2%

38 :名無しSUN:2005/07/21(木) 10:02:20 ID:BmCLBOvY
セントリタクネ

39 :名無しSUN:2005/07/21(木) 13:03:52 ID:9u+OMFk4 ?##
まもなくここは 乂1000取り合戦場乂 となります。

      \∧_ヘ     / ̄ ̄ ̄ ̄ ̄ ̄ ̄ ̄ ̄ ̄ ̄ ̄
 ,,、,、,,, / \〇ノゝ∩ < セントレア、いくぞゴルァ!!       ,,、,、,,,
    /三√ ゚Д゚) /   \____________  ,,、,、,,,
     /三/| ゚U゚|\      ,,、,、,,,                       ,,、,、,,,
 ,,、,、,,, U (:::::::::::)  ,,、,、,,, \オーッ!! いこみゃ〜♪ やろみゃ〜♪ /
      //三/|三|\     ∧_∧∧_∧ ∧_∧∧_∧∧_∧∧_∧
      ∪  ∪       (    )    (     )   (    )    )
 ,,、,、,,,       ,,、,、,,,  ∧_∧∧_∧∧_∧ ∧_∧∧_∧∧_∧∧_∧
      ,,、,、,,,       (    )    (    )    (    )    (    )



40 :名無しSUN:2005/07/21(木) 13:09:43 ID:9u+OMFk4 ?##
RJGG 210330Z 16004KT 100V200 8000 FEW020 BKN/// 28/21 Q1005 NOSIG =
セントレア 12時半 うす曇り 28℃

RJTT 210330Z 18016KT CAVOK 28/21 Q1005 RMK A2970 =
羽田 12時半 晴天 28℃

41 :名無しSUN:2005/07/21(木) 13:41:23 ID:F6wLcd0m ?##
RJGG 210400Z VRB03KT 8000 FEW020 BKN/// 29/22 Q1005 BECMG 16007KT =
セントレア 1時 薄曇り 29度

愛知万博 最高35度 紫外線指数 非常に強い 熱中症指数 危ない

42 :名無しSUN:2005/07/22(金) 01:49:58 ID:rQQ0Vx73 ?##
RJGG 211600Z 17004KT 4500 BR FEW045 26/24 Q1006 NOSIG =
セントレア 1時 もや(BR) 26℃

RJTT 211600Z 19006KT 6000 BR SCT007 BKN009 25/23 Q1006 RMK 3ST007 7ST009 A2971 BR E-SE =
羽田 1時 もや 25℃ 特記事項 霧雲(層雲=ST)が全天の8分の7を覆っている。

東京ちょっと前まで、オレンジ色の月が見えてたのに、急速に天気が悪化してるな

43 :名無しSUN:2005/07/22(金) 01:58:37 ID:rQQ0Vx73 ?##
RJGG 211630Z 18004KT 4500 BR FEW045 26/24 Q1006 NOSIG =
セントレア 1時半 もや 26℃

RJTT 211630Z 18008KT 5000 BR FEW003 BKN008 25/23 Q1005 RMK 2ST003 7ST008 A2970 =
羽田 1時半 もや 25℃ 
特記事項 急速に霧雲(ST)が降下している 90mに全天の2/8 240mに全天の7/8

44 :名無しSUN:2005/07/22(金) 02:21:52 ID:rQQ0Vx73 ?##
RJGG 211700Z 17003KT 4000 BR FEW045 26/24 Q1006 NOSIG =
セントレア 2時 もや(水平視界4000m) 26℃

RJTT 211700Z 22006KT 5000 BR FEW003 BKN008 BKN010 25/23 Q1005 RMK 2ST003 5ST008 7ST010 A2970 =
羽田 2時 もや(水平視界5000m) 25℃

45 :名無しSUN:2005/07/22(金) 02:56:01 ID:rQQ0Vx73 ?##
RJGG 211730Z VRB02KT 4000 BR FEW045 26/24 Q1006 NOSIG =
セントレア 2時半 もや 26℃

RJTT 211730Z 23006KT 5000 BR FEW008 BKN010 BKN012 25/23 Q1005 RMK 1ST008 5ST010 7SC012 A2970 =
羽田 2時半 もや 25℃
なんか霧雲(ST)が昇っていってくもり雲(SC=層積雲)になってしもうた。
雲が変態するってあるんだね。もう寝よう

46 :名無しSUN:2005/07/22(金) 12:55:27 ID:rQQ0Vx73 ?##
RJGG 220330Z 20004KT 6000 NSC 30/24 Q1005 NOSIG =
セントレア 12時半 晴れ 30℃

愛知万博 ピンポイント天気15時 晴れ35℃ 紫外線指数 非常に強い 熱中症指数 危ない
http://www.expo2005.or.jp/jp/weather/index.html

47 :名無しSUN:2005/07/24(日) 10:29:09 ID:2uFjs0tL ?##
RJGG 240100Z VRB03KT 9999 FEW008 BKN015 BKN030 25/21 Q1008 NOSIG =
セントレア 10時 くもり 25度

愛知万博 ピンポン天気 15時 くもり 29度 紫外線指数 やや強い 熱中症指数 危ない

48 :名無しSUN:2005/07/25(月) 09:45:31 ID:kJ9X4dz6 ?##
RJGG 250030Z VRB01KT 6000 FEW015 BKN020 27/22 Q1007 BECMG 13008KT =
セントレア 9時半 曇り 27度

愛知万博 ピンポイント天気 15時 くもり 30度 紫外線指数 強い 熱中症指数 危ない


49 :名無しSUN:2005/07/26(火) 00:56:30 ID:pniqtMgw ?##
RJGG 251530Z 03008KT 9999 -SHRA FEW030 SCT050 BKN080 25/22 Q0999 TEMPO 3000 SHRA =
セントレア 12時半 にわか雨 25℃ 999hPa

RJTT 251530Z 07005KT 9999 -SHRA FEW040 BKN090 24/23 Q1005 RMK 1CU040 7AC090 A2968 =
羽田 12時半 にわか雨 24℃ 1005hPa

ずいぶん気圧下がってきたな

50 :名無しSUN:2005/07/26(火) 01:17:13 ID:pniqtMgw ?##
RJGG 251600Z 03008KT 9999 -SHRA FEW030 SCT050 BKN080 25/22 Q0999 TEMPO 3000 SHRA =
セントレア 1時 にわか雨 25℃ 999hPa

RJTT 251600Z 05008KT 9999 -SHRA FEW020 BKN040 BKN070 25/23 Q1004 =
羽田 1時 にわか雨 25℃ 1004hPa

51 :名無しSUN:2005/07/26(火) 02:26:26 ID:pniqtMgw ?##
RJGG 251700Z 04010KT 9000 -SHRA FEW030 SCT050 BKN080 25/22 Q0997 TEMPO 3000 SHRA =
セントレア 2時 にわか雨 25℃ 997hPa

RJTT 251700Z 03010KT 9999 SHRA FEW020 SCT030 BKN040 24/23 Q1002 RMK 2CU020 4CU030 7SC040 A2961 =
羽田 2時 雨 24℃ 1002hPa

52 :名無しSUN:2005/07/26(火) 09:51:07 ID:rdPLkJWg ?##
RJGG 260030Z 01012KT 2300 R36/1700D SHRA BR FEW010 SCT020 BKN030 25/22 Q0991 TEMPO FEW005 BKN008 BKN015 =

RJGG セントレア
260030Z 9時半
01012KT 北の風6m
2300 水平視界2300m
R36/1700D 36番滑走路 水平視界1700m 悪化傾向
SHRA 雨
BR もや
FEW010 上空300mに少し雲あり
SCT020 上空600mにやや雲あり
BKN030 上空900mにかなり雲あり
25/22 気温25度 露点温度22度
Q0991 気圧991hPa

TEMPO 以下一時的な気象
FEW005 BKN008 BKN015 =

53 :名無しSUN:2005/07/26(火) 12:53:07 ID:pniqtMgw ?##
RJGG 260330Z 33018KT 8000 -SHRA FEW020 SCT030 BKN040 26/23 Q0988 TEMPO 4000 SHRA BR FEW005 BKN008 BKN015 =
セントレア 12時半 にわか雨 26℃ 988hPa

愛知万博 ピンポイント天気 15時 雨 28度 紫外線指数 やや強い 熱中症指数 危ない

54 :名無しSUN:2005/07/27(水) 13:09:51 ID:+akFuXAI ?##
RJGG 270330Z 32020KT 9999 FEW030 26/18 Q1003 NOSIG =
セントレア 12時半 晴れ 26℃

愛知万博 ピンポイント天気 15時 晴れ 32度 紫外線指数 非常に強い 熱中症指数 危ない

55 :名無しSUN:2005/07/29(金) 02:11:10 ID:tCOuZAS4 ?##
RJGG 281700Z 11006KT 4000 BR FEW050 26/23 Q1006 NOSIG =
セントレア 2時 もや 26℃

RJTT 281700Z 14004KT 8000 BKN015 24/22 Q1007 =
羽田 2時 くもりがち 24℃

今夜は名古屋も暑そうだなあ

56 :名無しSUN:2005/07/30(土) 01:14:08 ID:wH4q4RMe ?##
RJGG 291600Z 25011KT 9999 FEW040 BKN110 28/21 Q1007 BECMG 28008KT =
セントレア 1時 くもり 28℃

RJTT 291600Z 21008KT 6000 FEW010 BKN150 26/24 Q1006 =
羽田 1時 くもり 26℃

今夜はバカ暑だなあ

57 :名無しSUN:2005/07/30(土) 11:50:00 ID:wH4q4RMe ?##
RJGG 300230Z 32004KT 7000 FEW030 SCT/// 29/24 Q1008 BECMG 24006KT =
セントレア 11時半 晴れ時々くもり 29℃

愛知万博 ピンポイント天気 12時 くもり 32度 紫外線指数 非常に強い 熱中症指数 危ない

58 :名無しSUN:2005/07/30(土) 12:25:13 ID:wH4q4RMe ?##
RJGG 300300Z 32004KT 8000 FEW030 SCT/// 30/23 Q1007 BECMG 24006KT =
セントレア 12時 晴れ時々くもり 30℃ 65%

名古屋 12時 晴れ 34.0℃ 45.1%

59 :名無しSUN:2005/07/30(土) 12:58:45 ID:wH4q4RMe ?##
RJGG 300330Z 30003KT 9999 FEW030 SCT/// 31/22 Q1007 BECMG 24006KT =
セントレア 12時半 晴れ時々くもり 31℃

セントレアも気温上がってまいりますた。
しかし海洋性気候だから、上がっても33度が限界か。
沖縄なんかも、そんなもんだし。

60 :名無しSUN:2005/07/30(土) 13:27:47 ID:wH4q4RMe ?##
RJGG 300400Z 21004KT 9999 FEW030 SCT080 31/23 Q1007 NOSIG =
セントレア 1時 晴れ時々くもり 31℃

RJTT 300400Z 13006KT 5000 -RA BR FEW015 BKN050 29/24 Q1007 RMK 1CU015 6SC050 A2974 =
羽田 1時 小雨 もや 29℃

61 :名無しSUN:2005/07/31(日) 04:53:10 ID:Leo4FleW ?##
RJGG 301930Z 26003KT 4000 BR FEW030 26/24 Q1008 NOSIG =
セントレア 4時半 もや 26度

RJTT 301930Z 36005KT 5000 BR BKN018 26/24 Q1008 RMK 7SC018 A2978 =
羽田 4時半 もや 26度 層積雲(SC=くもり雲)が全天の7/8を覆っている

62 :名無しSUN:2005/07/31(日) 10:23:01 ID:xSuII4Ol ?##
RJGG 310100Z 21007KT 3800 BR FEW030 BKN120 27/24 Q1009 NOSIG =
セントレア 10時 もや 27度

RJTT 310100Z 10004KT 4500 BR SCT020 28/25 Q1009 RMK 4CU020 A2981 =
羽田 10時 もや 28度 全天の半分くらい積雲(CU)が覆っている

63 :名無しSUN:2005/07/31(日) 11:56:54 ID:zUDcygoN ?##
RJGG 310230Z 17011KT 6000 FEW030 BKN/// 28/24 Q1008 NOSIG =
セントレア 11時半 うすぐもり 28度

愛知万博 ピンポイント天気 12時 晴れ 32度 紫外線指数 非常に強い 熱中症指数 危ない

64 :名無しSUN:2005/07/31(日) 12:34:32 ID:5XTmkA1s
ブログ立てて余所でやってくんない?

65 :名無しSUN:2005/07/31(日) 12:41:24 ID:CiKBcALy ?##
>>64
スマソ、下げるね

66 :名無しSUN:2005/07/31(日) 12:44:03 ID:CiKBcALy ?##
しかし愛地球博いつも非常に強い危ないじゃ狼少年だな。
天気によってメリハリつければいいのにね

67 :名無しSUN:2005/07/31(日) 12:49:42 ID:CiKBcALy ?##
RJGG 310330Z 15005KT 110V170 7000 FEW030 SCT120 BKN/// 30/24 Q1008 NOSIG =
セントレア 12時半 くもり 30度

RJTT 310330Z 15011KT 3500 HZ FEW020 30/25 Q1008 RMK 1CU020 A2979 =
羽田 12時半 煙霧(HZ) 30度 積雲少し

68 :名無しSUN:2005/07/31(日) 22:47:58 ID:Leo4FleW ?##
RJGG 311330Z 35005KT 6000 FEW008 SCT012 BKN150 26/23 Q1009 TEMPO FEW008 BKN012 =
セントレア 10時半 くもり 26℃

RJTT 311330Z 18010KT 9999 FEW010 BKN/// 26/24 Q1009 RMK 1CU010 A2980 =
羽田 10時半 うす曇り 26℃

69 :名無しSUN:2005/07/31(日) 22:48:33 ID:Leo4FleW ?##
ごめんね。あげてしもうた

70 :名無しSUN:2005/08/01(月) 06:49:39 ID:KcUV5aHT
上げ下げの問題じゃなくてここは貴方の日記帳ではありませんってこった。
余所でやれや。


71 :名無しSUN:2005/08/02(火) 02:36:12 ID:Id3kAJLE ?##
サンクス、やっぱりレスつかないから、これ失敗スレでつね。
ブログに引っ越したよ。
http://blog.livedoor.jp/tenki_jp/
みんな見に来てね。

72 :名無しSUN:2005/08/25(木) 11:57:21 ID:xx7Pm0rM ?##
RJGG 250230Z 08018KT 9999 FEW020 SCT035 BKN050 31/21 Q1004 BECMG 07020KT =
セントレア 11時半 東の風9m 視界良好 くもり 31度 1004hPa

RJTT 250230Z 06020KT 8000 -SHRA FEW006 SCT008 BKN018 25/24 Q1011 RMK 1ST006 4ST008 6CU018 A2987 =
羽田 11時半 北東の風10m 視界8km にわか雨 25度 1011hPa

73 :名無しSUN:2005/08/25(木) 11:58:51 ID:xx7Pm0rM ?##
台風来たのでちょっと臨時
プログでやっても、誰も見に来ないからおもしろくないよう

74 :名無しSUN:2005/08/25(木) 12:16:23 ID:xx7Pm0rM ?##
RJGG 250300Z 08019G31KT 9999 FEW020 SCT030 BKN050 31/20 Q1004 BECMG 06020KT =
セントレア 12時 東の風10m 最大風速16m 曇り 31度

75 :名無しSUN:2005/08/25(木) 12:52:27 ID:XmAAazNT ?##
RJGG 250330Z 07018KT 9999 FEW015 SCT030 BKN050 28/22 Q1004 TEMPO 06025G35KT =
セントレア 12時半 東の風9m くもり 28℃ 1004hPa

気温下がってきた

76 :名無しSUN:2005/08/25(木) 17:41:34 ID:xx7Pm0rM ?##
RJGG 250800Z 03009KT 9999 FEW020 SCT030 BKN070 32/19 Q1000 NOSIG =
セントレア 5時 北の風5m 曇り 32度 1000hPa

77 :名無しSUN:2005/08/26(金) 01:06:37 ID:cMpWelKX ?##
RJGG 251530Z 28015KT 9999 FEW030 SCT120 BKN180 28/22 Q1002 NOSIG =
セントレア 12時半 視界良好 曇り 28℃ 1002hPa

RJTT 251530Z 10030KT 4000 SHRA FEW015 BKN025 BKN040 25/24 Q1000 RMK 1CU015 5CU025 7CU040 A2953 P/FR =
羽田 12時半 視界4000m にわか雨 25℃ 1000hPa 積雲(CU)いっぱい

78 :名無しSUN:2005/08/26(金) 02:45:45 ID:cMpWelKX ?##
RJGG 251730Z 28015KT 9999 FEW030 BKN100 BKN180 27/22 Q1003 NOSIG =
セントレア 2時半 視界良好 曇り 27℃ 1003hPa

RJTT 251730Z 08038KT 3800 SHRA BR SCT013 BKN020 25/25 Q0992 =
羽田 2時半 東の風19m にわか雨 25℃ 992hPa

79 :名無しSUN:2005/08/28(日) 03:43:33 ID:+tyTvh8H ?##
RJGG 271800Z 32012KT CAVOK 25/18 Q1008 NOSIG =
セントレア 3時 快晴 25℃

RJTT 271800Z 35011KT 9999 BKN025 25/21 Q1008 RMK 7SC025 A2978 =
羽田 3時 曇り 25℃ 特記事項 層積雲(SC=曇り雲)が全天の7/8で高さ750mにある。

80 :名無しSUN:2005/08/30(火) 11:33:19 ID:L9Ap/4/F
次から「みゃ〜♪」を付けること。。

26 KB
■ このスレッドは過去ログ倉庫に格納されています

★スマホ版★ 掲示板に戻る 全部 前100 次100 最新50

read.cgi ver 05.04.00 2017/10/04 Walang Kapalit ★
FOX ★ DSO(Dynamic Shared Object)